Time;durP1;ratioP1;P1;durP2;ratioP2;P2;SDS_P1;SDS_P2;PMS_P1;PMS_P2;Temp;Humidity;BMP_temperature;BMP_pressure;BME280_temperature;BME280_humidity;BME280_pressure;Samples;Min_cycle;Max_cycle;Signal;HPM_P1;HPM_P2
2023/08/07 00:00:20;;;;;;;0.10;0.10;;;;;;;;;;5094908;28;20056;-59
2023/08/07 00:02:47;;;;;;;0.00;0.00;;;;;;;;;;5095265;28;20064;-59
2023/08/07 00:05:16;;;;;;;0.10;0.10;;;;;;;;;;5094881;28;20046;-60
2023/08/07 00:07:43;;;;;;;0.10;0.10;;;;;;;;;;5094769;28;20105;-59
2023/08/07 00:10:10;;;;;;;0.10;0.10;;;;;;;;;;5094890;28;20411;-59
2023/08/07 00:12:38;;;;;;;0.10;0.10;;;;;;;;;;5094783;28;20498;-59
2023/08/07 00:15:05;;;;;;;0.10;0.10;;;;;;;;;;5110325;28;20044;-59
2023/08/07 00:17:33;;;;;;;0.10;0.10;;;;;;;;;;5094754;28;20048;-59
2023/08/07 00:20:01;;;;;;;0.10;0.10;;;;;;;;;;5094473;28;20478;-60
2023/08/07 00:22:28;;;;;;;0.10;0.10;;;;;;;;;;5094373;28;20044;-59
2023/08/07 00:24:55;;;;;;;0.10;0.10;;;;;;;;;;5094481;28;20119;-59
2023/08/07 00:27:22;;;;;;;0.10;0.10;;;;;;;;;;5094769;28;20482;-59
2023/08/07 00:29:49;;;;;;;0.10;0.10;;;;;;;;;;5094351;28;20104;-59
2023/08/07 00:32:16;;;;;;;0.10;0.10;;;;;;;;;;5093389;28;20070;-59
2023/08/07 00:34:45;;;;;;;0.10;0.10;;;;;;;;;;5094397;28;20103;-60
2023/08/07 00:37:13;;;;;;;0.10;0.10;;;;;;;;;;5093311;28;20383;-60
2023/08/07 00:39:40;;;;;;;0.10;0.10;;;;;;;;;;5094258;28;20044;-59
2023/08/07 00:42:07;;;;;;;0.10;0.10;;;;;;;;;;5094302;28;20131;-59
2023/08/07 00:44:35;;;;;;;0.10;0.10;;;;;;;;;;5094372;28;20363;-59
2023/08/07 00:47:02;;;;;;;0.20;0.20;;;;;;;;;;5109961;28;20411;-59
2023/08/07 00:49:30;;;;;;;0.20;0.20;;;;;;;;;;5093011;28;20059;-59
2023/08/07 00:51:58;;;;;;;0.10;0.10;;;;;;;;;;5093926;28;20427;-59
2023/08/07 00:54:25;;;;;;;0.20;0.20;;;;;;;;;;5092345;28;20058;-59
2023/08/07 00:56:52;;;;;;;0.10;0.10;;;;;;;;;;5092803;28;20043;-59
2023/08/07 00:59:19;;;;;;;0.10;0.10;;;;;;;;;;5093898;28;20558;-59
2023/08/07 01:01:46;;;;;;;0.10;0.10;;;;;;;;;;5092903;28;20135;-59
2023/08/07 01:04:13;;;;;;;0.13;0.13;;;;;;;;;;5092416;28;20040;-59
2023/08/07 01:06:41;;;;;;;0.10;0.10;;;;;;;;;;5093859;28;20040;-59
2023/08/07 01:09:10;;;;;;;0.10;0.10;;;;;;;;;;5093689;28;20055;-59
2023/08/07 01:11:37;;;;;;;0.10;0.10;;;;;;;;;;5093955;28;20082;-59
2023/08/07 01:14:07;;;;;;;0.10;0.10;;;;;;;;;;5093401;28;20127;-59
2023/08/07 01:16:35;;;;;;;0.10;0.10;;;;;;;;;;5093681;28;20122;-59
2023/08/07 01:19:02;;;;;;;0.20;0.20;;;;;;;;;;5093604;28;20046;-59
2023/08/07 01:21:30;;;;;;;0.10;0.10;;;;;;;;;;5092771;28;20127;-59
2023/08/07 01:23:59;;;;;;;0.10;0.10;;;;;;;;;;5093474;28;20046;-59
2023/08/07 01:26:26;;;;;;;0.10;0.10;;;;;;;;;;5093339;28;20048;-59
2023/08/07 01:28:55;;;;;;;0.10;0.10;;;;;;;;;;5092614;28;20044;-59
2023/08/07 01:31:22;;;;;;;0.10;0.10;;;;;;;;;;5108959;28;20101;-59
2023/08/07 01:33:51;;;;;;;0.10;0.10;;;;;;;;;;5091948;28;20127;-59
2023/08/07 01:36:19;;;;;;;;;;;;;;;;;;5093727;28;20063;-59
2023/08/07 01:38:46;;;;;;;0.13;0.13;;;;;;;;;;5092975;28;19952;-59
2023/08/07 01:41:15;;;;;;;0.10;0.10;;;;;;;;;;5093475;28;20139;-59
2023/08/07 01:43:42;;;;;;;0.10;0.10;;;;;;;;;;5091706;28;20110;-59
2023/08/07 01:46:09;;;;;;;0.10;0.10;;;;;;;;;;5091895;28;20130;-59
2023/08/07 01:48:37;;;;;;;0.10;0.10;;;;;;;;;;5092737;28;20051;-59
2023/08/07 01:51:04;;;;;;;0.10;0.10;;;;;;;;;;5091539;28;20050;-59
2023/08/07 01:53:32;;;;;;;0.10;0.10;;;;;;;;;;5091821;28;20396;-59
2023/08/07 01:55:59;;;;;;;0.17;0.17;;;;;;;;;;5091595;28;20052;-59
2023/08/07 01:58:27;;;;;;;0.10;0.10;;;;;;;;;;5091397;28;20039;-59
2023/08/07 02:00:54;;;;;;;0.10;0.10;;;;;;;;;;5091484;28;20131;-59
2023/08/07 02:03:21;;;;;;;0.10;0.10;;;;;;;;;;5091338;28;20044;-59
2023/08/07 02:05:48;;;;;;;0.20;0.20;;;;;;;;;;5092500;28;20052;-59
2023/08/07 02:08:15;;;;;;;0.10;0.10;;;;;;;;;;5092394;28;20131;-59
2023/08/07 02:10:42;;;;;;;0.10;0.10;;;;;;;;;;5093117;28;20040;-59
2023/08/07 02:13:09;;;;;;;0.20;0.20;;;;;;;;;;5091194;28;20409;-59
2023/08/07 02:15:38;;;;;;;0.10;0.10;;;;;;;;;;5091271;28;20047;-59
2023/08/07 02:18:05;;;;;;;0.10;0.10;;;;;;;;;;5091158;28;20384;-59
2023/08/07 02:20:32;;;;;;;0.10;0.10;;;;;;;;;;5090972;28;20440;-59
2023/08/07 02:22:59;;;;;;;0.10;0.10;;;;;;;;;;5092274;28;20056;-60
2023/08/07 02:25:28;;;;;;;0.10;0.10;;;;;;;;;;5108254;28;20056;-59
2023/08/07 02:27:57;;;;;;;0.10;0.10;;;;;;;;;;5092304;28;20051;-59
2023/08/07 02:30:24;;;;;;;0.20;0.20;;;;;;;;;;5107973;28;20047;-59
2023/08/07 02:32:52;;;;;;;0.10;0.10;;;;;;;;;;5090937;28;20044;-59
2023/08/07 02:35:19;;;;;;;0.20;0.20;;;;;;;;;;5091955;28;20127;-59
2023/08/07 02:37:46;;;;;;;0.10;0.10;;;;;;;;;;5091069;28;20464;-59
2023/08/07 02:40:15;;;;;;;0.10;0.10;;;;;;;;;;5092210;28;20112;-59
2023/08/07 02:42:43;;;;;;;0.10;0.10;;;;;;;;;;5092162;28;20093;-59
2023/08/07 02:45:10;;;;;;;0.10;0.10;;;;;;;;;;5090788;28;20071;-60
2023/08/07 02:47:37;;;;;;;0.10;0.10;;;;;;;;;;5091577;28;20048;-59
2023/08/07 02:50:06;;;;;;;0.10;0.10;;;;;;;;;;5090202;28;20487;-59
2023/08/07 02:52:34;;;;;;;0.10;0.10;;;;;;;;;;5074080;28;20040;-59
2023/08/07 02:55:01;;;;;;;0.10;0.10;;;;;;;;;;5090232;28;20131;-59
2023/08/07 02:57:28;;;;;;;0.10;0.10;;;;;;;;;;5090548;28;20457;-59
2023/08/07 02:59:55;;;;;;;0.10;0.10;;;;;;;;;;5091599;28;20044;-59
2023/08/07 03:02:22;;;;;;;0.10;0.10;;;;;;;;;;5090703;28;20048;-59
2023/08/07 03:04:49;;;;;;;0.10;0.10;;;;;;;;;;5091878;28;20040;-59
2023/08/07 03:07:18;;;;;;;0.10;0.10;;;;;;;;;;5092179;28;20097;-60
2023/08/07 03:09:46;;;;;;;0.10;0.10;;;;;;;;;;5091071;28;20556;-60
2023/08/07 03:12:13;;;;;;;0.10;0.10;;;;;;;;;;5091846;28;20131;-59
2023/08/07 03:14:40;;;;;;;0.15;0.15;;;;;;;;;;5091895;28;20143;-60
2023/08/07 03:17:07;;;;;;;0.10;0.10;;;;;;;;;;5091815;28;20045;-60
2023/08/07 03:19:34;;;;;;;0.17;0.17;;;;;;;;;;5092072;28;20050;-60
2023/08/07 03:22:01;;;;;;;0.10;0.10;;;;;;;;;;5095606;28;20072;-61
2023/08/07 03:24:30;;;;;;;0.10;0.10;;;;;;;;;;5094645;28;20044;-60
2023/08/07 03:26:57;;;;;;;0.10;0.10;;;;;;;;;;5095681;28;20540;-60
2023/08/07 03:29:24;;;;;;;0.10;0.10;;;;;;;;;;5095378;28;20040;-60
2023/08/07 03:31:52;;;;;;;0.15;0.15;;;;;;;;;;5111343;28;20118;-60
2023/08/07 03:34:19;;;;;;;0.20;0.20;;;;;;;;;;5095397;28;20055;-60
2023/08/07 03:36:46;;;;;;;0.10;0.10;;;;;;;;;;5095421;28;20083;-58
2023/08/07 03:39:13;;;;;;;0.20;0.20;;;;;;;;;;5095237;28;20115;-61
2023/08/07 03:41:42;;;;;;;0.10;0.10;;;;;;;;;;5094383;28;20079;-61
2023/08/07 03:44:11;;;;;;;0.10;0.10;;;;;;;;;;5094218;28;20050;-58
2023/08/07 03:46:39;;;;;;;0.35;0.10;;;;;;;;;;5095452;28;20039;-58
2023/08/07 03:49:06;;;;;;;0.10;0.10;;;;;;;;;;5095103;28;20437;-58
2023/08/07 03:51:33;;;;;;;0.10;0.10;;;;;;;;;;5095239;28;20135;-58
2023/08/07 03:54:01;;;;;;;0.10;0.10;;;;;;;;;;5093619;28;20044;-61
2023/08/07 03:56:28;;;;;;;0.10;0.10;;;;;;;;;;5094052;28;20040;-60
2023/08/07 03:58:57;;;;;;;0.10;0.10;;;;;;;;;;5093709;28;20044;-60
2023/08/07 04:01:25;;;;;;;0.20;0.20;;;;;;;;;;5094005;28;20041;-60
2023/08/07 04:03:52;;;;;;;0.10;0.10;;;;;;;;;;5093738;28;20044;-60
2023/08/07 04:06:20;;;;;;;0.15;0.15;;;;;;;;;;5093888;28;20040;-60
2023/08/07 04:08:48;;;;;;;0.10;0.10;;;;;;;;;;5094846;28;20083;-60
2023/08/07 04:11:16;;;;;;;0.10;0.10;;;;;;;;;;5094925;28;20169;-61
2023/08/07 04:13:43;;;;;;;0.10;0.10;;;;;;;;;;5095025;28;20552;-61
2023/08/07 04:16:11;;;;;;;0.20;0.20;;;;;;;;;;5094789;28;20044;-60
2023/08/07 04:18:39;;;;;;;0.10;0.10;;;;;;;;;;5095148;28;20040;-60
2023/08/07 04:21:06;;;;;;;0.10;0.10;;;;;;;;;;5093798;28;20048;-60
2023/08/07 04:23:33;;;;;;;0.10;0.10;;;;;;;;;;5094447;28;20044;-60
2023/08/07 04:26:00;;;;;;;0.20;0.20;;;;;;;;;;5094734;28;20059;-60
2023/08/07 04:28:28;;;;;;;0.13;0.13;;;;;;;;;;5110146;28;20127;-60
2023/08/07 04:30:56;;;;;;;0.17;0.17;;;;;;;;;;5110074;28;20123;-60
2023/08/07 04:33:25;;;;;;;0.10;0.10;;;;;;;;;;5094283;28;20044;-60
2023/08/07 04:35:52;;;;;;;0.10;0.10;;;;;;;;;;5092577;28;20129;-60
2023/08/07 04:38:19;;;;;;;0.00;0.00;;;;;;;;;;5094661;28;20479;-59
2023/08/07 04:40:46;;;;;;;0.10;0.10;;;;;;;;;;5094214;28;20048;-60
2023/08/07 04:43:14;;;;;;;0.20;0.20;;;;;;;;;;5093975;28;20101;-60
2023/08/07 04:45:41;;;;;;;0.10;0.10;;;;;;;;;;5093918;28;20052;-60
2023/08/07 04:48:08;;;;;;;0.10;0.10;;;;;;;;;;5094050;28;20131;-59
2023/08/07 04:50:37;;;;;;;0.20;0.20;;;;;;;;;;5094217;28;20068;-60
2023/08/07 04:53:05;;;;;;;0.10;0.10;;;;;;;;;;5094228;28;20044;-60
2023/08/07 04:55:32;;;;;;;0.20;0.20;;;;;;;;;;5093890;28;20083;-59
2023/08/07 04:57:59;;;;;;;0.10;0.10;;;;;;;;;;5093960;28;20036;-60
2023/08/07 05:00:26;;;;;;;0.10;0.10;;;;;;;;;;5093911;28;20048;-59
2023/08/07 05:02:53;;;;;;;0.10;0.10;;;;;;;;;;5092991;28;20412;-60
2023/08/07 05:05:21;;;;;;;0.10;0.10;;;;;;;;;;5093861;28;20051;-60
2023/08/07 05:07:49;;;;;;;0.10;0.10;;;;;;;;;;5094118;28;20074;-58
2023/08/07 05:10:16;;;;;;;0.00;0.00;;;;;;;;;;5094088;28;20044;-60
2023/08/07 05:12:43;;;;;;;0.13;0.13;;;;;;;;;;5093667;28;20091;-60
2023/08/07 05:15:11;;;;;;;0.10;0.10;;;;;;;;;;5093617;28;20122;-59
2023/08/07 05:17:38;;;;;;;0.10;0.10;;;;;;;;;;5093674;28;20123;-59
2023/08/07 05:20:06;;;;;;;0.10;0.10;;;;;;;;;;5093474;28;20109;-59
2023/08/07 05:22:33;;;;;;;0.10;0.10;;;;;;;;;;5093417;28;20044;-60
2023/08/07 05:25:01;;;;;;;0.10;0.10;;;;;;;;;;5093578;28;20381;-60
2023/08/07 05:27:29;;;;;;;0.10;0.10;;;;;;;;;;5093612;28;20079;-60
2023/08/07 05:29:56;;;;;;;0.10;0.10;;;;;;;;;;5094070;28;20048;-59
2023/08/07 05:32:23;;;;;;;0.10;0.10;;;;;;;;;;5093436;28;20047;-58
2023/08/07 05:34:51;;;;;;;0.10;0.10;;;;;;;;;;5075082;28;20216;-60
2023/08/07 05:37:18;;;;;;;0.10;0.10;;;;;;;;;;5093158;28;20063;-61
2023/08/07 05:39:46;;;;;;;0.20;0.20;;;;;;;;;;5093061;28;20453;-59
2023/08/07 05:42:14;;;;;;;0.10;0.10;;;;;;;;;;5092501;28;20101;-60
2023/08/07 05:44:41;;;;;;;0.10;0.10;;;;;;;;;;5092762;28;20048;-58
2023/08/07 05:47:08;;;;;;;0.10;0.10;;;;;;;;;;5091768;28;20138;-59
2023/08/07 05:49:35;;;;;;;0.10;0.10;;;;;;;;;;5092915;28;20051;-61
2023/08/07 05:52:02;;;;;;;0.10;0.10;;;;;;;;;;5092808;28;20131;-58
2023/08/07 05:54:29;;;;;;;0.10;0.10;;;;;;;;;;5091598;28;20040;-58
2023/08/07 05:56:56;;;;;;;0.10;0.10;;;;;;;;;;5093117;28;20039;-61
2023/08/07 05:59:25;;;;;;;0.10;0.10;;;;;;;;;;5092754;28;20056;-58
2023/08/07 06:01:52;;;;;;;0.10;0.10;;;;;;;;;;5091292;28;20443;-58
2023/08/07 06:04:20;;;;;;;0.10;0.10;;;;;;;;;;5092224;28;20039;-59
2023/08/07 06:06:47;;;;;;;0.10;0.10;;;;;;;;;;5092495;28;20051;-59
2023/08/07 06:09:15;;;;;;;0.10;0.10;;;;;;;;;;5091156;28;20075;-59
2023/08/07 06:11:42;;;;;;;0.20;0.20;;;;;;;;;;5092675;28;20032;-59
2023/08/07 06:14:09;;;;;;;0.10;0.10;;;;;;;;;;5090944;28;20044;-59
2023/08/07 06:16:38;;;;;;;0.10;0.10;;;;;;;;;;5092148;28;20048;-59
2023/08/07 06:19:05;;;;;;;0.10;0.10;;;;;;;;;;5092690;28;20055;-59
2023/08/07 06:21:32;;;;;;;0.10;0.10;;;;;;;;;;5092359;28;20064;-59
2023/08/07 06:23:59;;;;;;;0.10;0.10;;;;;;;;;;5092263;28;20044;-59
2023/08/07 06:26:26;;;;;;;0.13;0.13;;;;;;;;;;5092219;28;20132;-59
2023/08/07 06:28:53;;;;;;;0.15;0.15;;;;;;;;;;5092439;28;20093;-59
2023/08/07 06:31:20;;;;;;;0.20;0.20;;;;;;;;;;5092562;28;20405;-59
2023/08/07 06:33:49;;;;;;;0.10;0.10;;;;;;;;;;5092152;28;20044;-59
2023/08/07 06:36:16;;;;;;;0.15;0.15;;;;;;;;;;5092147;28;20052;-59
2023/08/07 06:38:43;;;;;;;0.10;0.10;;;;;;;;;;5092117;28;20040;-59
2023/08/07 06:41:10;;;;;;;0.10;0.10;;;;;;;;;;5092265;28;20113;-59
2023/08/07 06:43:37;;;;;;;0.10;0.10;;;;;;;;;;5092362;28;20051;-59
2023/08/07 06:46:04;;;;;;;0.10;0.10;;;;;;;;;;5091868;28;20052;-59
2023/08/07 06:48:31;;;;;;;0.10;0.10;;;;;;;;;;5092325;28;20041;-59
2023/08/07 06:51:00;;;;;;;0.10;0.10;;;;;;;;;;5092128;28;20082;-60
2023/08/07 06:53:27;;;;;;;0.10;0.10;;;;;;;;;;5091585;28;20080;-60
2023/08/07 06:55:54;;;;;;;0.13;0.13;;;;;;;;;;5095717;28;20043;-59
2023/08/07 06:58:21;;;;;;;0.10;0.10;;;;;;;;;;5096067;28;20048;-59
2023/08/07 07:00:48;;;;;;;0.10;0.10;;;;;;;;;;5096075;28;20113;-59
2023/08/07 07:03:15;;;;;;;0.10;0.10;;;;;;;;;;5096091;28;20052;-59
2023/08/07 07:05:42;;;;;;;0.10;0.10;;;;;;;;;;5095840;28;20094;-59
2023/08/07 07:08:11;;;;;;;0.08;0.08;;;;;;;;;;5095849;28;20074;-59
2023/08/07 07:10:38;;;;;;;0.20;0.20;;;;;;;;;;5095021;28;20048;-59
2023/08/07 07:13:05;;;;;;;0.10;0.10;;;;;;;;;;5095694;28;20113;-59
2023/08/07 07:15:32;;;;;;;0.10;0.10;;;;;;;;;;5095747;28;20040;-59
2023/08/07 07:17:59;;;;;;;0.10;0.10;;;;;;;;;;5095867;28;20139;-59
2023/08/07 07:20:27;;;;;;;0.10;0.10;;;;;;;;;;5096104;28;20241;-59
2023/08/07 07:22:54;;;;;;;0.10;0.10;;;;;;;;;;5095750;28;20086;-59
2023/08/07 07:25:22;;;;;;;0.10;0.10;;;;;;;;;;5095808;28;20102;-59
2023/08/07 07:27:49;;;;;;;0.00;0.00;;;;;;;;;;5095626;28;20459;-59
2023/08/07 07:30:16;;;;;;;0.10;0.10;;;;;;;;;;5095574;28;20044;-59
2023/08/07 07:32:43;;;;;;;0.20;0.20;;;;;;;;;;5095704;28;20043;-59
2023/08/07 07:35:10;;;;;;;0.10;0.10;;;;;;;;;;5094512;28;20076;-58
2023/08/07 07:37:37;;;;;;;0.10;0.10;;;;;;;;;;5095449;28;20487;-58
2023/08/07 07:40:05;;;;;;;0.10;0.10;;;;;;;;;;5095340;28;20133;-58
2023/08/07 07:42:33;;;;;;;0.10;0.10;;;;;;;;;;5095953;28;20052;-58
2023/08/07 07:45:00;;;;;;;0.10;0.10;;;;;;;;;;5095179;28;20067;-58
2023/08/07 07:47:28;;;;;;;0.10;0.10;;;;;;;;;;5095341;28;20060;-58
2023/08/07 07:50:04;;;;;;;0.10;0.10;;;;;;;;;;5095205;28;20078;-58
2023/08/07 07:52:32;;;;;;;0.10;0.10;;;;;;;;;;5095077;28;20149;-58
2023/08/07 07:54:59;;;;;;;0.10;0.10;;;;;;;;;;5095079;28;20058;-58
2023/08/07 07:57:26;;;;;;;0.08;0.08;;;;;;;;;;5095003;28;20036;-58
2023/08/07 07:59:54;;;;;;;0.00;0.00;;;;;;;;;;5094749;28;20131;-59
2023/08/07 08:02:22;;;;;;;0.10;0.10;;;;;;;;;;5094918;28;20483;-58
2023/08/07 08:04:49;;;;;;;0.10;0.10;;;;;;;;;;5095165;28;20473;-58
2023/08/07 08:07:16;;;;;;;0.10;0.10;;;;;;;;;;5094904;28;20048;-58
2023/08/07 08:09:43;;;;;;;0.10;0.10;;;;;;;;;;5094756;28;20101;-58
2023/08/07 08:12:11;;;;;;;0.10;0.10;;;;;;;;;;5094925;28;20044;-61
2023/08/07 08:14:38;;;;;;;0.08;0.08;;;;;;;;;;5094832;28;20067;-58
2023/08/07 08:17:06;;;;;;;0.10;0.10;;;;;;;;;;5094779;28;20135;-59
2023/08/07 08:19:34;;;;;;;0.10;0.10;;;;;;;;;;5095294;28;20491;-59
2023/08/07 08:22:01;;;;;;;0.10;0.10;;;;;;;;;;5094618;28;20040;-58
2023/08/07 08:24:28;;;;;;;0.10;0.10;;;;;;;;;;5094564;28;20056;-58
2023/08/07 08:26:55;;;;;;;0.10;0.10;;;;;;;;;;5093337;28;20404;-58
2023/08/07 08:29:22;;;;;;;0.10;0.10;;;;;;;;;;5094650;28;20097;-58
2023/08/07 08:31:51;;;;;;;0.10;0.10;;;;;;;;;;5094609;28;20048;-61
2023/08/07 08:34:19;;;;;;;0.10;0.10;;;;;;;;;;5094743;28;20394;-59
2023/08/07 08:36:46;;;;;;;0.10;0.10;;;;;;;;;;5095105;28;20048;-59
2023/08/07 08:39:13;;;;;;;0.10;0.10;;;;;;;;;;5094363;28;20044;-58
2023/08/07 08:41:41;;;;;;;0.10;0.10;;;;;;;;;;5094245;28;20044;-58
2023/08/07 08:44:08;;;;;;;0.00;0.00;;;;;;;;;;5093921;28;20094;-58
2023/08/07 08:46:35;;;;;;;0.00;0.00;;;;;;;;;;5109747;28;20079;-59
2023/08/07 08:49:03;;;;;;;0.10;0.10;;;;;;;;;;5094097;28;20044;-58
2023/08/07 08:51:31;;;;;;;0.10;0.10;;;;;;;;;;5094193;28;20502;-58
2023/08/07 08:53:58;;;;;;;0.00;0.00;;;;;;;;;;5093007;28;20087;-59
2023/08/07 08:56:25;;;;;;;0.10;0.10;;;;;;;;;;5092303;28;20051;-59
2023/08/07 08:58:53;;;;;;;0.10;0.10;;;;;;;;;;5093671;28;20051;-59
2023/08/07 09:01:20;;;;;;;0.10;0.10;;;;;;;;;;5093735;28;20089;-58
2023/08/07 09:03:47;;;;;;;0.00;0.00;;;;;;;;;;5093715;28;20131;-59
2023/08/07 09:06:14;;;;;;;0.00;0.00;;;;;;;;;;5093835;28;20101;-59
2023/08/07 09:08:43;;;;;;;0.10;0.10;;;;;;;;;;5093830;28;20048;-59
2023/08/07 09:11:10;;;;;;;0.10;0.10;;;;;;;;;;5092543;28;20040;-59
2023/08/07 09:13:37;;;;;;;0.05;0.05;;;;;;;;;;5093635;28;20093;-59
2023/08/07 09:16:05;;;;;;;0.00;0.00;;;;;;;;;;5093365;28;20067;-59
2023/08/07 09:18:32;;;;;;;0.00;0.00;;;;;;;;;;5092954;28;20056;-59
2023/08/07 09:20:59;;;;;;;0.10;0.10;;;;;;;;;;5093288;28;20077;-58
2023/08/07 09:23:26;;;;;;;0.10;0.10;;;;;;;;;;5093632;28;20047;-59
2023/08/07 09:26:01;;;;;;;0.00;0.00;;;;;;;;;;5094281;28;20047;-59
2023/08/07 09:28:31;;;;;;;0.10;0.10;;;;;;;;;;5092272;28;20048;-59
2023/08/07 09:30:58;;;;;;;0.10;0.10;;;;;;;;;;5093188;28;20080;-59
2023/08/07 09:33:25;;;;;;;0.00;0.00;;;;;;;;;;5093122;28;20068;-60
2023/08/07 09:35:52;;;;;;;0.10;0.10;;;;;;;;;;5093144;28;20478;-59
2023/08/07 09:38:19;;;;;;;0.00;0.00;;;;;;;;;;5093044;28;20047;-59
2023/08/07 09:40:46;;;;;;;0.05;0.05;;;;;;;;;;5092528;28;20471;-59
2023/08/07 09:43:15;;;;;;;0.10;0.10;;;;;;;;;;5092927;28;20136;-59
2023/08/07 09:45:42;;;;;;;0.10;0.10;;;;;;;;;;5093177;28;20148;-59
2023/08/07 09:48:11;;;;;;;0.10;0.10;;;;;;;;;;5092988;28;20059;-59
2023/08/07 09:50:39;;;;;;;0.10;0.10;;;;;;;;;;5093026;28;20078;-59
2023/08/07 09:53:06;;;;;;;0.00;0.00;;;;;;;;;;5092785;28;20044;-59
2023/08/07 09:55:33;;;;;;;0.10;0.10;;;;;;;;;;5092676;28;20479;-59
2023/08/07 09:58:01;;;;;;;0.10;0.10;;;;;;;;;;5092750;28;20052;-59
2023/08/07 10:00:30;;;;;;;0.10;0.10;;;;;;;;;;5092411;28;20402;-59
2023/08/07 10:02:57;;;;;;;0.10;0.10;;;;;;;;;;5092355;28;20051;-59
2023/08/07 10:05:25;;;;;;;0.10;0.10;;;;;;;;;;5092494;28;20070;-59
2023/08/07 10:07:54;;;;;;;0.00;0.00;;;;;;;;;;5092798;28;20044;-59
2023/08/07 10:10:21;;;;;;;0.00;0.00;;;;;;;;;;5092388;28;20036;-59
2023/08/07 10:12:48;;;;;;;0.00;0.00;;;;;;;;;;5092667;28;20032;-59
2023/08/07 10:15:15;;;;;;;0.10;0.10;;;;;;;;;;5091100;28;20044;-59
2023/08/07 10:17:44;;;;;;;0.00;0.00;;;;;;;;;;5092233;28;20093;-59
2023/08/07 10:20:12;;;;;;;0.00;0.00;;;;;;;;;;5092404;28;20040;-59
2023/08/07 10:22:39;;;;;;;0.10;0.10;;;;;;;;;;5092110;28;20531;-59
2023/08/07 10:25:07;;;;;;;0.00;0.00;;;;;;;;;;5092260;28;20517;-59
2023/08/07 10:27:34;;;;;;;0.00;0.00;;;;;;;;;;5092056;28;20089;-59
2023/08/07 10:30:02;;;;;;;0.00;0.00;;;;;;;;;;5092341;28;20631;-59
2023/08/07 10:32:30;;;;;;;0.00;0.00;;;;;;;;;;5092369;28;20051;-59
2023/08/07 10:34:59;;;;;;;0.00;0.00;;;;;;;;;;5092286;28;20127;-60
2023/08/07 10:37:41;;;;;;;0.00;0.00;;;;;;;;;;5092220;28;20139;-60
2023/08/07 10:40:28;;;;;;;0.10;0.10;;;;;;;;;;5091724;28;20512;-59
2023/08/07 10:42:58;;;;;;;0.00;0.00;;;;;;;;;;5092602;28;20097;-59
2023/08/07 10:45:26;;;;;;;0.00;0.00;;;;;;;;;;5092504;28;20047;-59
2023/08/07 10:48:02;;;;;;;0.00;0.00;;;;;;;;;;5092107;28;20044;-59
2023/08/07 10:50:31;;;;;;;0.00;0.00;;;;;;;;;;5091775;28;20059;-60
2023/08/07 10:53:00;;;;;;;0.00;0.00;;;;;;;;;;5091816;28;20055;-59
2023/08/07 10:55:28;;;;;;;0.00;0.00;;;;;;;;;;5092191;28;20095;-59
2023/08/07 10:57:55;;;;;;;0.00;0.00;;;;;;;;;;5091597;28;20083;-59
2023/08/07 11:00:23;;;;;;;0.10;0.10;;;;;;;;;;5091702;28;20080;-59
2023/08/07 11:02:50;;;;;;;0.00;0.00;;;;;;;;;;5091505;28;20044;-57
2023/08/07 11:05:18;;;;;;;0.00;0.00;;;;;;;;;;5091774;28;20129;-58
2023/08/07 11:07:47;;;;;;;0.10;0.10;;;;;;;;;;5091607;28;20048;-59
2023/08/07 11:10:14;;;;;;;0.00;0.00;;;;;;;;;;5092302;28;20085;-59
2023/08/07 11:12:43;;;;;;;0.00;0.00;;;;;;;;;;5091877;28;20048;-58
2023/08/07 11:15:13;;;;;;;0.00;0.00;;;;;;;;;;5090486;28;20511;-58
2023/08/07 11:17:41;;;;;;;0.00;0.00;;;;;;;;;;5091489;28;20086;-58
2023/08/07 11:20:12;;;;;;;0.10;0.10;;;;;;;;;;5092158;28;20072;-58
2023/08/07 11:22:40;;;;;;;0.00;0.00;;;;;;;;;;5091632;28;20044;-58
2023/08/07 11:25:13;;;;;;;0.00;0.00;;;;;;;;;;5092038;28;20044;-58
2023/08/07 11:27:41;;;;;;;0.00;0.00;;;;;;;;;;5092198;28;20044;-58
2023/08/07 11:30:12;;;;;;;0.10;0.10;;;;;;;;;;5091792;28;20044;-58
2023/08/07 11:32:39;;;;;;;0.00;0.00;;;;;;;;;;5091712;28;20048;-58
2023/08/07 11:35:07;;;;;;;0.00;0.00;;;;;;;;;;5091965;28;20084;-58
2023/08/07 11:37:35;;;;;;;0.00;0.00;;;;;;;;;;5091647;28;20040;-60
2023/08/07 11:40:02;;;;;;;0.10;0.10;;;;;;;;;;5092501;28;20044;-59
2023/08/07 11:42:31;;;;;;;0.00;0.00;;;;;;;;;;5095969;28;20044;-60
2023/08/07 11:44:58;;;;;;;0.00;0.00;;;;;;;;;;5095658;28;20173;-60
2023/08/07 11:47:25;;;;;;;0.00;0.00;;;;;;;;;;5095609;28;20123;-58
2023/08/07 11:49:53;;;;;;;0.00;0.00;;;;;;;;;;5096061;28;20093;-60
2023/08/07 11:52:21;;;;;;;0.00;0.00;;;;;;;;;;5095368;28;20075;-60
2023/08/07 11:54:49;;;;;;;0.00;0.00;;;;;;;;;;5095379;28;20492;-59
2023/08/07 11:57:16;;;;;;;0.10;0.10;;;;;;;;;;5095316;28;20051;-60
2023/08/07 11:59:45;;;;;;;0.00;0.00;;;;;;;;;;5095541;28;20196;-59
2023/08/07 12:02:12;;;;;;;0.00;0.00;;;;;;;;;;5095420;28;20062;-59
2023/08/07 12:04:39;;;;;;;0.00;0.00;;;;;;;;;;5095450;28;20056;-59
2023/08/07 12:07:06;;;;;;;0.00;0.00;;;;;;;;;;5095255;28;20039;-59
2023/08/07 12:09:33;;;;;;;0.03;0.03;;;;;;;;;;5095120;28;20505;-59
2023/08/07 12:12:00;;;;;;;0.00;0.00;;;;;;;;;;5095134;28;20048;-60
2023/08/07 12:14:30;;;;;;;0.00;0.00;;;;;;;;;;5095113;28;20040;-59
2023/08/07 12:16:58;;;;;;;0.00;0.00;;;;;;;;;;5094984;28;20050;-59
2023/08/07 12:19:25;;;;;;;0.00;0.00;;;;;;;;;;5095273;28;20127;-59
2023/08/07 12:21:52;;;;;;;0.10;0.08;;;;;;;;;;5095052;28;20044;-59
2023/08/07 12:24:20;;;;;;;0.00;0.00;;;;;;;;;;5095011;28;20040;-59
2023/08/07 12:26:47;;;;;;;0.00;0.00;;;;;;;;;;5094837;28;20047;-59
2023/08/07 12:29:14;;;;;;;0.00;0.00;;;;;;;;;;5094673;28;20050;-59
2023/08/07 12:31:41;;;;;;;0.00;0.00;;;;;;;;;;5094588;28;20119;-59
2023/08/07 12:34:10;;;;;;;0.00;0.00;;;;;;;;;;5094466;28;20044;-59
2023/08/07 12:36:37;;;;;;;0.00;0.00;;;;;;;;;;5093362;28;20085;-59
2023/08/07 12:39:06;;;;;;;0.00;0.00;;;;;;;;;;5094494;28;20040;-59
2023/08/07 12:41:33;;;;;;;0.00;0.00;;;;;;;;;;5094550;28;20043;-59
2023/08/07 12:44:01;;;;;;;0.00;0.00;;;;;;;;;;5094434;28;20044;-59
2023/08/07 12:46:28;;;;;;;0.00;0.00;;;;;;;;;;5094411;28;20109;-59
2023/08/07 12:48:55;;;;;;;0.00;0.00;;;;;;;;;;5094555;28;20067;-59
2023/08/07 12:51:23;;;;;;;0.00;0.00;;;;;;;;;;5093724;28;20056;-58
2023/08/07 12:53:51;;;;;;;0.00;0.00;;;;;;;;;;5094088;28;20499;-59
2023/08/07 12:56:18;;;;;;;0.00;0.00;;;;;;;;;;5094453;28;20040;-59
2023/08/07 12:58:45;;;;;;;0.00;0.00;;;;;;;;;;5093998;28;20052;-59
2023/08/07 13:01:12;;;;;;;0.00;0.00;;;;;;;;;;5092950;28;20044;-59
2023/08/07 13:03:40;;;;;;;0.00;0.00;;;;;;;;;;5093910;28;20460;-59
2023/08/07 13:06:08;;;;;;;0.10;0.00;;;;;;;;;;5109898;28;20055;-59
2023/08/07 13:08:37;;;;;;;0.00;0.00;;;;;;;;;;5093812;28;20044;-59
2023/08/07 13:11:04;;;;;;;0.00;0.00;;;;;;;;;;5093852;28;20036;-59
2023/08/07 13:13:31;;;;;;;0.00;0.00;;;;;;;;;;5093749;28;20460;-59
2023/08/07 13:15:58;;;;;;;0.00;0.00;;;;;;;;;;5093849;28;20499;-59
2023/08/07 13:18:25;;;;;;;0.00;0.00;;;;;;;;;;5094157;28;20372;-59
2023/08/07 13:20:52;;;;;;;0.00;0.00;;;;;;;;;;5093940;28;20483;-59
2023/08/07 13:23:19;;;;;;;0.00;0.00;;;;;;;;;;5093834;28;20055;-59
2023/08/07 13:25:48;;;;;;;0.00;0.00;;;;;;;;;;5093647;28;20123;-59
2023/08/07 13:28:16;;;;;;;0.17;0.05;;;;;;;;;;5093783;28;20048;-59
2023/08/07 13:30:43;;;;;;;0.00;0.00;;;;;;;;;;5092734;28;20040;-59
2023/08/07 13:33:10;;;;;;;0.00;0.00;;;;;;;;;;5093575;28;20052;-59
2023/08/07 13:35:37;;;;;;;0.00;0.00;;;;;;;;;;5093600;28;20048;-59
2023/08/07 13:38:07;;;;;;;0.00;0.00;;;;;;;;;;5093442;28;20131;-59
2023/08/07 13:40:34;;;;;;;0.00;0.00;;;;;;;;;;5093482;28;20134;-59
2023/08/07 13:43:07;;;;;;;0.00;0.00;;;;;;;;;;5093735;28;20119;-59
2023/08/07 13:45:34;;;;;;;0.03;0.03;;;;;;;;;;5093567;28;20055;-59
2023/08/07 13:48:02;;;;;;;0.00;0.00;;;;;;;;;;5093376;28;20036;-59
2023/08/07 13:50:30;;;;;;;0.00;0.00;;;;;;;;;;5093706;28;20189;-59
2023/08/07 13:52:57;;;;;;;0.00;0.00;;;;;;;;;;5091938;28;20035;-59
2023/08/07 13:55:24;;;;;;;0.00;0.00;;;;;;;;;;5093216;28;20044;-59
2023/08/07 13:57:51;;;;;;;0.00;0.00;;;;;;;;;;5092943;28;20048;-59
2023/08/07 14:00:20;;;;;;;0.00;0.00;;;;;;;;;;5093139;28;20056;-62
2023/08/07 14:02:47;;;;;;;0.00;0.00;;;;;;;;;;5092508;28;20071;-59
2023/08/07 14:05:14;;;;;;;0.00;0.00;;;;;;;;;;5093031;28;20524;-59
2023/08/07 14:07:41;;;;;;;0.00;0.00;;;;;;;;;;5092992;28;20048;-59
2023/08/07 14:10:09;;;;;;;0.10;0.03;;;;;;;;;;5092974;28;20090;-59
2023/08/07 14:12:36;;;;;;;0.00;0.00;;;;;;;;;;5093227;28;20047;-59
2023/08/07 14:15:03;;;;;;;0.00;0.00;;;;;;;;;;5092622;28;20051;-59
2023/08/07 14:17:31;;;;;;;0.00;0.00;;;;;;;;;;5092940;28;20048;-59
2023/08/07 14:19:58;;;;;;;0.00;0.00;;;;;;;;;;5092771;28;20058;-59
2023/08/07 14:22:25;;;;;;;0.00;0.00;;;;;;;;;;5092771;28;20044;-59
2023/08/07 14:24:53;;;;;;;0.00;0.00;;;;;;;;;;5093030;28;20085;-59
2023/08/07 14:27:20;;;;;;;0.00;0.00;;;;;;;;;;5092816;28;20048;-59
2023/08/07 14:29:47;;;;;;;0.00;0.00;;;;;;;;;;5092925;28;20054;-59
2023/08/07 14:32:14;;;;;;;0.00;0.00;;;;;;;;;;5092813;28;20089;-59
2023/08/07 14:34:42;;;;;;;0.00;0.00;;;;;;;;;;5092462;28;20512;-59
2023/08/07 14:37:09;;;;;;;0.00;0.00;;;;;;;;;;5092862;28;20051;-59
2023/08/07 14:39:36;;;;;;;0.00;0.00;;;;;;;;;;5092557;28;20076;-59
2023/08/07 14:42:04;;;;;;;0.00;0.00;;;;;;;;;;5092519;28;20085;-59
2023/08/07 14:44:31;;;;;;;0.00;0.00;;;;;;;;;;5092459;28;20070;-59